sensor_id;sensor_type;location;lat;lon;timestamp;P1;durP1;ratioP1;P2;durP2;ratioP2
25627;SDS011;40915;50.826;4.356;2024-03-22T00:01:49;37.80;;;26.38;;
25627;SDS011;40915;50.826;4.356;2024-03-22T00:04:16;41.83;;;25.42;;
25627;SDS011;40915;50.826;4.356;2024-03-22T00:06:42;40.50;;;26.23;;
25627;SDS011;40915;50.826;4.356;2024-03-22T00:09:09;34.33;;;24.50;;
25627;SDS011;40915;50.826;4.356;2024-03-22T00:11:35;34.30;;;23.20;;
25627;SDS011;40915;50.826;4.356;2024-03-22T00:14:02;36.70;;;24.02;;
25627;SDS011;40915;50.826;4.356;2024-03-22T00:16:28;35.55;;;23.30;;
25627;SDS011;40915;50.826;4.356;2024-03-22T00:18:53;33.22;;;22.67;;
25627;SDS011;40915;50.826;4.356;2024-03-22T00:21:20;36.53;;;24.50;;
25627;SDS011;40915;50.826;4.356;2024-03-22T00:23:47;35.97;;;24.08;;
25627;SDS011;40915;50.826;4.356;2024-03-22T00:26:12;35.28;;;23.98;;
25627;SDS011;40915;50.826;4.356;2024-03-22T00:28:38;34.38;;;23.30;;
25627;SDS011;40915;50.826;4.356;2024-03-22T00:31:04;35.25;;;24.77;;
25627;SDS011;40915;50.826;4.356;2024-03-22T00:33:29;32.95;;;22.55;;
25627;SDS011;40915;50.826;4.356;2024-03-22T00:35:55;38.00;;;23.85;;
25627;SDS011;40915;50.826;4.356;2024-03-22T00:38:21;33.03;;;23.48;;
25627;SDS011;40915;50.826;4.356;2024-03-22T00:40:46;39.03;;;24.60;;
25627;SDS011;40915;50.826;4.356;2024-03-22T00:43:12;34.42;;;23.67;;
25627;SDS011;40915;50.826;4.356;2024-03-22T00:45:38;34.25;;;22.50;;
25627;SDS011;40915;50.826;4.356;2024-03-22T00:48:03;33.17;;;21.63;;
25627;SDS011;40915;50.826;4.356;2024-03-22T00:50:29;35.10;;;22.85;;
25627;SDS011;40915;50.826;4.356;2024-03-22T00:52:55;34.28;;;22.58;;
25627;SDS011;40915;50.826;4.356;2024-03-22T00:55:21;31.77;;;21.83;;
25627;SDS011;40915;50.826;4.356;2024-03-22T00:57:47;32.65;;;23.38;;
25627;SDS011;40915;50.826;4.356;2024-03-22T01:00:13;31.90;;;22.20;;
25627;SDS011;40915;50.826;4.356;2024-03-22T01:02:40;37.20;;;23.75;;
25627;SDS011;40915;50.826;4.356;2024-03-22T01:05:06;32.88;;;22.48;;
25627;SDS011;40915;50.826;4.356;2024-03-22T01:07:32;35.40;;;23.75;;
25627;SDS011;40915;50.826;4.356;2024-03-22T01:09:57;33.58;;;24.70;;
25627;SDS011;40915;50.826;4.356;2024-03-22T01:12:23;36.10;;;24.60;;
25627;SDS011;40915;50.826;4.356;2024-03-22T01:14:49;35.22;;;24.35;;
25627;SDS011;40915;50.826;4.356;2024-03-22T01:17:14;34.63;;;25.13;;
25627;SDS011;40915;50.826;4.356;2024-03-22T01:19:40;40.33;;;25.92;;
25627;SDS011;40915;50.826;4.356;2024-03-22T01:22:06;36.97;;;25.10;;
25627;SDS011;40915;50.826;4.356;2024-03-22T01:24:31;36.97;;;26.08;;
25627;SDS011;40915;50.826;4.356;2024-03-22T01:26:57;40.28;;;25.90;;
25627;SDS011;40915;50.826;4.356;2024-03-22T01:29:23;39.88;;;25.40;;
25627;SDS011;40915;50.826;4.356;2024-03-22T01:31:48;36.00;;;25.10;;
25627;SDS011;40915;50.826;4.356;2024-03-22T01:34:14;38.88;;;25.75;;
25627;SDS011;40915;50.826;4.356;2024-03-22T01:36:40;38.85;;;23.98;;
25627;SDS011;40915;50.826;4.356;2024-03-22T01:39:06;33.35;;;23.83;;
25627;SDS011;40915;50.826;4.356;2024-03-22T01:41:31;35.92;;;23.92;;
25627;SDS011;40915;50.826;4.356;2024-03-22T01:43:57;36.80;;;24.23;;
25627;SDS011;40915;50.826;4.356;2024-03-22T01:46:23;36.08;;;23.98;;
25627;SDS011;40915;50.826;4.356;2024-03-22T01:48:49;38.05;;;24.52;;
25627;SDS011;40915;50.826;4.356;2024-03-22T01:51:15;37.45;;;24.50;;
25627;SDS011;40915;50.826;4.356;2024-03-22T01:53:41;36.38;;;24.33;;
25627;SDS011;40915;50.826;4.356;2024-03-22T01:56:07;37.22;;;24.02;;
25627;SDS011;40915;50.826;4.356;2024-03-22T01:58:33;36.88;;;25.33;;
25627;SDS011;40915;50.826;4.356;2024-03-22T02:00:59;37.17;;;23.98;;
25627;SDS011;40915;50.826;4.356;2024-03-22T02:03:25;34.72;;;23.70;;
25627;SDS011;40915;50.826;4.356;2024-03-22T02:05:51;34.63;;;24.30;;
25627;SDS011;40915;50.826;4.356;2024-03-22T02:08:17;42.92;;;25.60;;
25627;SDS011;40915;50.826;4.356;2024-03-22T02:10:43;32.95;;;23.48;;
25627;SDS011;40915;50.826;4.356;2024-03-22T02:13:09;45.17;;;25.90;;
25627;SDS011;40915;50.826;4.356;2024-03-22T02:15:34;38.08;;;25.77;;
25627;SDS011;40915;50.826;4.356;2024-03-22T02:18:00;37.28;;;23.73;;
25627;SDS011;40915;50.826;4.356;2024-03-22T02:20:26;36.78;;;24.55;;
25627;SDS011;40915;50.826;4.356;2024-03-22T02:22:52;38.08;;;24.67;;
25627;SDS011;40915;50.826;4.356;2024-03-22T02:25:17;35.78;;;24.65;;
25627;SDS011;40915;50.826;4.356;2024-03-22T02:27:43;33.80;;;24.08;;
25627;SDS011;40915;50.826;4.356;2024-03-22T02:30:09;34.30;;;24.02;;
25627;SDS011;40915;50.826;4.356;2024-03-22T02:32:34;40.55;;;24.02;;
25627;SDS011;40915;50.826;4.356;2024-03-22T02:35:01;36.20;;;24.08;;
25627;SDS011;40915;50.826;4.356;2024-03-22T02:37:27;36.22;;;23.55;;
25627;SDS011;40915;50.826;4.356;2024-03-22T02:39:53;36.17;;;24.27;;
25627;SDS011;40915;50.826;4.356;2024-03-22T02:42:19;35.35;;;23.23;;
25627;SDS011;40915;50.826;4.356;2024-03-22T02:44:44;34.22;;;23.73;;
25627;SDS011;40915;50.826;4.356;2024-03-22T02:47:10;33.08;;;21.60;;
25627;SDS011;40915;50.826;4.356;2024-03-22T02:49:37;34.92;;;22.58;;
25627;SDS011;40915;50.826;4.356;2024-03-22T02:52:03;34.63;;;22.05;;
25627;SDS011;40915;50.826;4.356;2024-03-22T02:54:29;34.90;;;21.67;;
25627;SDS011;40915;50.826;4.356;2024-03-22T02:56:55;34.22;;;21.65;;
25627;SDS011;40915;50.826;4.356;2024-03-22T02:59:20;33.70;;;22.25;;
25627;SDS011;40915;50.826;4.356;2024-03-22T03:01:46;35.92;;;22.58;;
25627;SDS011;40915;50.826;4.356;2024-03-22T03:04:11;29.73;;;21.15;;
25627;SDS011;40915;50.826;4.356;2024-03-22T03:06:37;33.22;;;21.45;;
25627;SDS011;40915;50.826;4.356;2024-03-22T03:09:03;30.80;;;20.63;;
25627;SDS011;40915;50.826;4.356;2024-03-22T03:11:32;30.58;;;19.77;;
25627;SDS011;40915;50.826;4.356;2024-03-22T03:13:58;32.22;;;20.13;;
25627;SDS011;40915;50.826;4.356;2024-03-22T03:16:23;30.52;;;20.05;;
25627;SDS011;40915;50.826;4.356;2024-03-22T03:18:49;29.42;;;20.30;;
25627;SDS011;40915;50.826;4.356;2024-03-22T03:21:15;33.13;;;19.58;;
25627;SDS011;40915;50.826;4.356;2024-03-22T03:23:40;28.55;;;18.38;;
25627;SDS011;40915;50.826;4.356;2024-03-22T03:26:06;27.23;;;18.17;;
25627;SDS011;40915;50.826;4.356;2024-03-22T03:28:32;30.23;;;18.92;;
25627;SDS011;40915;50.826;4.356;2024-03-22T03:30:57;27.20;;;17.58;;
25627;SDS011;40915;50.826;4.356;2024-03-22T03:33:23;27.70;;;16.98;;
25627;SDS011;40915;50.826;4.356;2024-03-22T03:35:48;25.35;;;17.65;;
25627;SDS011;40915;50.826;4.356;2024-03-22T03:38:14;29.85;;;17.55;;
25627;SDS011;40915;50.826;4.356;2024-03-22T03:40:40;24.85;;;17.05;;
25627;SDS011;40915;50.826;4.356;2024-03-22T03:43:05;28.70;;;17.95;;
25627;SDS011;40915;50.826;4.356;2024-03-22T03:45:31;30.90;;;18.65;;
25627;SDS011;40915;50.826;4.356;2024-03-22T03:47:57;28.45;;;18.27;;
25627;SDS011;40915;50.826;4.356;2024-03-22T03:50:22;31.00;;;19.70;;
25627;SDS011;40915;50.826;4.356;2024-03-22T03:52:48;28.65;;;18.70;;
25627;SDS011;40915;50.826;4.356;2024-03-22T03:55:14;26.30;;;17.67;;
25627;SDS011;40915;50.826;4.356;2024-03-22T03:57:40;27.65;;;17.95;;
25627;SDS011;40915;50.826;4.356;2024-03-22T04:00:06;25.52;;;17.73;;
25627;SDS011;40915;50.826;4.356;2024-03-22T04:02:32;25.67;;;17.05;;
25627;SDS011;40915;50.826;4.356;2024-03-22T04:04:57;28.08;;;17.77;;
25627;SDS011;40915;50.826;4.356;2024-03-22T04:07:23;25.17;;;16.50;;
25627;SDS011;40915;50.826;4.356;2024-03-22T04:09:49;27.15;;;16.77;;
25627;SDS011;40915;50.826;4.356;2024-03-22T04:12:14;25.10;;;16.73;;
25627;SDS011;40915;50.826;4.356;2024-03-22T04:14:40;26.17;;;16.30;;
25627;SDS011;40915;50.826;4.356;2024-03-22T04:17:06;24.30;;;16.27;;
25627;SDS011;40915;50.826;4.356;2024-03-22T04:19:32;26.13;;;16.88;;
25627;SDS011;40915;50.826;4.356;2024-03-22T04:21:57;24.42;;;16.00;;
25627;SDS011;40915;50.826;4.356;2024-03-22T04:24:23;22.27;;;14.77;;
25627;SDS011;40915;50.826;4.356;2024-03-22T04:26:49;22.98;;;15.27;;
25627;SDS011;40915;50.826;4.356;2024-03-22T04:29:14;23.98;;;16.23;;
25627;SDS011;40915;50.826;4.356;2024-03-22T04:31:40;23.67;;;15.30;;
25627;SDS011;40915;50.826;4.356;2024-03-22T04:34:05;22.10;;;14.68;;
25627;SDS011;40915;50.826;4.356;2024-03-22T04:36:32;22.73;;;15.20;;
25627;SDS011;40915;50.826;4.356;2024-03-22T04:38:58;24.05;;;15.40;;
25627;SDS011;40915;50.826;4.356;2024-03-22T04:41:24;23.75;;;15.38;;
25627;SDS011;40915;50.826;4.356;2024-03-22T04:43:49;20.95;;;14.10;;
25627;SDS011;40915;50.826;4.356;2024-03-22T04:46:15;20.67;;;13.90;;
25627;SDS011;40915;50.826;4.356;2024-03-22T04:48:40;21.30;;;14.82;;
25627;SDS011;40915;50.826;4.356;2024-03-22T04:51:06;27.10;;;15.82;;
25627;SDS011;40915;50.826;4.356;2024-03-22T04:53:32;22.98;;;14.90;;
25627;SDS011;40915;50.826;4.356;2024-03-22T04:55:57;23.45;;;15.15;;
25627;SDS011;40915;50.826;4.356;2024-03-22T04:58:23;26.63;;;15.88;;
25627;SDS011;40915;50.826;4.356;2024-03-22T05:00:49;27.27;;;15.93;;
25627;SDS011;40915;50.826;4.356;2024-03-22T05:03:20;24.65;;;16.20;;
25627;SDS011;40915;50.826;4.356;2024-03-22T05:05:46;25.70;;;15.57;;
25627;SDS011;40915;50.826;4.356;2024-03-22T05:08:12;25.27;;;15.80;;
25627;SDS011;40915;50.826;4.356;2024-03-22T05:10:37;24.67;;;15.85;;
25627;SDS011;40915;50.826;4.356;2024-03-22T05:13:03;23.77;;;15.27;;
25627;SDS011;40915;50.826;4.356;2024-03-22T05:15:29;23.20;;;15.50;;
25627;SDS011;40915;50.826;4.356;2024-03-22T05:17:55;25.63;;;16.25;;
25627;SDS011;40915;50.826;4.356;2024-03-22T05:20:22;28.70;;;16.52;;
25627;SDS011;40915;50.826;4.356;2024-03-22T05:22:48;26.42;;;15.98;;
25627;SDS011;40915;50.826;4.356;2024-03-22T05:25:14;24.63;;;16.13;;
25627;SDS011;40915;50.826;4.356;2024-03-22T05:27:42;24.83;;;14.98;;
25627;SDS011;40915;50.826;4.356;2024-03-22T05:30:11;22.88;;;15.45;;
25627;SDS011;40915;50.826;4.356;2024-03-22T05:32:38;25.27;;;14.73;;
25627;SDS011;40915;50.826;4.356;2024-03-22T05:35:04;22.63;;;15.10;;
25627;SDS011;40915;50.826;4.356;2024-03-22T05:37:30;23.55;;;14.23;;
25627;SDS011;40915;50.826;4.356;2024-03-22T05:39:56;22.35;;;15.05;;
25627;SDS011;40915;50.826;4.356;2024-03-22T05:42:21;26.17;;;15.57;;
25627;SDS011;40915;50.826;4.356;2024-03-22T05:44:47;24.42;;;15.18;;
25627;SDS011;40915;50.826;4.356;2024-03-22T05:47:13;21.25;;;14.73;;
25627;SDS011;40915;50.826;4.356;2024-03-22T05:49:39;20.33;;;13.68;;
25627;SDS011;40915;50.826;4.356;2024-03-22T05:52:05;20.70;;;14.43;;
25627;SDS011;40915;50.826;4.356;2024-03-22T05:54:30;20.83;;;13.88;;
25627;SDS011;40915;50.826;4.356;2024-03-22T05:56:56;22.02;;;14.40;;
25627;SDS011;40915;50.826;4.356;2024-03-22T05:59:22;25.33;;;14.48;;
25627;SDS011;40915;50.826;4.356;2024-03-22T06:01:47;21.38;;;14.25;;
25627;SDS011;40915;50.826;4.356;2024-03-22T06:04:14;22.20;;;14.38;;
25627;SDS011;40915;50.826;4.356;2024-03-22T06:06:40;21.65;;;14.07;;
25627;SDS011;40915;50.826;4.356;2024-03-22T06:09:06;24.08;;;14.15;;
25627;SDS011;40915;50.826;4.356;2024-03-22T06:11:36;20.00;;;13.30;;
25627;SDS011;40915;50.826;4.356;2024-03-22T06:14:02;22.80;;;13.70;;
25627;SDS011;40915;50.826;4.356;2024-03-22T06:16:27;22.23;;;13.98;;
25627;SDS011;40915;50.826;4.356;2024-03-22T06:18:53;22.05;;;14.15;;
25627;SDS011;40915;50.826;4.356;2024-03-22T06:21:19;21.08;;;13.25;;
25627;SDS011;40915;50.826;4.356;2024-03-22T06:23:49;23.13;;;14.55;;
25627;SDS011;40915;50.826;4.356;2024-03-22T06:26:16;22.90;;;14.75;;
25627;SDS011;40915;50.826;4.356;2024-03-22T06:28:42;26.10;;;15.35;;
25627;SDS011;40915;50.826;4.356;2024-03-22T06:31:07;27.40;;;14.93;;
25627;SDS011;40915;50.826;4.356;2024-03-22T06:33:33;22.92;;;14.25;;
25627;SDS011;40915;50.826;4.356;2024-03-22T06:35:59;25.88;;;15.18;;
25627;SDS011;40915;50.826;4.356;2024-03-22T06:38:25;26.05;;;15.40;;
25627;SDS011;40915;50.826;4.356;2024-03-22T06:40:51;25.48;;;14.55;;
25627;SDS011;40915;50.826;4.356;2024-03-22T06:43:16;24.20;;;14.52;;
25627;SDS011;40915;50.826;4.356;2024-03-22T06:45:42;23.77;;;14.65;;
25627;SDS011;40915;50.826;4.356;2024-03-22T06:48:08;20.60;;;13.35;;
25627;SDS011;40915;50.826;4.356;2024-03-22T06:50:33;22.80;;;13.63;;
25627;SDS011;40915;50.826;4.356;2024-03-22T06:52:59;25.42;;;13.98;;
25627;SDS011;40915;50.826;4.356;2024-03-22T06:55:24;23.27;;;13.52;;
25627;SDS011;40915;50.826;4.356;2024-03-22T06:57:50;21.42;;;13.27;;
25627;SDS011;40915;50.826;4.356;2024-03-22T07:00:17;20.95;;;13.50;;
25627;SDS011;40915;50.826;4.356;2024-03-22T07:02:44;20.48;;;13.07;;
25627;SDS011;40915;50.826;4.356;2024-03-22T07:05:10;22.88;;;13.60;;
25627;SDS011;40915;50.826;4.356;2024-03-22T07:07:36;24.25;;;14.38;;
25627;SDS011;40915;50.826;4.356;2024-03-22T07:10:03;23.73;;;14.57;;
25627;SDS011;40915;50.826;4.356;2024-03-22T07:12:30;21.83;;;13.10;;
25627;SDS011;40915;50.826;4.356;2024-03-22T07:14:57;26.15;;;13.73;;
25627;SDS011;40915;50.826;4.356;2024-03-22T07:17:24;23.73;;;13.38;;
25627;SDS011;40915;50.826;4.356;2024-03-22T07:19:50;36.17;;;14.70;;
25627;SDS011;40915;50.826;4.356;2024-03-22T07:22:16;24.80;;;14.13;;
25627;SDS011;40915;50.826;4.356;2024-03-22T07:24:43;20.77;;;12.95;;
25627;SDS011;40915;50.826;4.356;2024-03-22T07:27:08;23.77;;;14.50;;
25627;SDS011;40915;50.826;4.356;2024-03-22T07:29:34;27.27;;;14.27;;
25627;SDS011;40915;50.826;4.356;2024-03-22T07:32:00;21.38;;;13.02;;
25627;SDS011;40915;50.826;4.356;2024-03-22T07:34:26;23.20;;;13.32;;
25627;SDS011;40915;50.826;4.356;2024-03-22T07:36:51;21.17;;;13.23;;
25627;SDS011;40915;50.826;4.356;2024-03-22T07:39:18;20.95;;;12.63;;
25627;SDS011;40915;50.826;4.356;2024-03-22T07:41:44;22.65;;;12.63;;
25627;SDS011;40915;50.826;4.356;2024-03-22T07:44:09;21.02;;;12.73;;
25627;SDS011;40915;50.826;4.356;2024-03-22T07:46:36;20.63;;;12.23;;
25627;SDS011;40915;50.826;4.356;2024-03-22T07:49:01;21.40;;;12.65;;
25627;SDS011;40915;50.826;4.356;2024-03-22T07:51:29;22.33;;;12.98;;
25627;SDS011;40915;50.826;4.356;2024-03-22T07:53:57;21.63;;;13.48;;
25627;SDS011;40915;50.826;4.356;2024-03-22T07:56:22;20.67;;;12.68;;
25627;SDS011;40915;50.826;4.356;2024-03-22T07:58:48;22.80;;;12.50;;
25627;SDS011;40915;50.826;4.356;2024-03-22T08:01:13;20.23;;;11.82;;
25627;SDS011;40915;50.826;4.356;2024-03-22T08:03:40;19.98;;;12.43;;
25627;SDS011;40915;50.826;4.356;2024-03-22T08:06:06;21.38;;;12.05;;
25627;SDS011;40915;50.826;4.356;2024-03-22T08:08:32;16.83;;;11.07;;
25627;SDS011;40915;50.826;4.356;2024-03-22T08:10:58;18.63;;;10.77;;
25627;SDS011;40915;50.826;4.356;2024-03-22T08:13:24;21.05;;;10.75;;
25627;SDS011;40915;50.826;4.356;2024-03-22T08:15:49;15.45;;;10.63;;
25627;SDS011;40915;50.826;4.356;2024-03-22T08:18:15;17.15;;;11.43;;
25627;SDS011;40915;50.826;4.356;2024-03-22T08:20:41;16.33;;;11.65;;
25627;SDS011;40915;50.826;4.356;2024-03-22T08:23:07;19.77;;;13.25;;
25627;SDS011;40915;50.826;4.356;2024-03-22T08:25:32;21.73;;;14.50;;
25627;SDS011;40915;50.826;4.356;2024-03-22T08:27:58;19.85;;;14.45;;
25627;SDS011;40915;50.826;4.356;2024-03-22T08:30:24;23.10;;;15.23;;
25627;SDS011;40915;50.826;4.356;2024-03-22T08:32:50;23.15;;;15.68;;
25627;SDS011;40915;50.826;4.356;2024-03-22T08:35:16;28.52;;;17.13;;
25627;SDS011;40915;50.826;4.356;2024-03-22T08:37:42;24.42;;;15.45;;
25627;SDS011;40915;50.826;4.356;2024-03-22T08:40:08;22.73;;;14.98;;
25627;SDS011;40915;50.826;4.356;2024-03-22T08:42:35;20.25;;;14.95;;
25627;SDS011;40915;50.826;4.356;2024-03-22T08:45:01;21.38;;;14.55;;
25627;SDS011;40915;50.826;4.356;2024-03-22T08:47:26;21.35;;;14.02;;
25627;SDS011;40915;50.826;4.356;2024-03-22T08:49:52;19.60;;;13.52;;
25627;SDS011;40915;50.826;4.356;2024-03-22T08:52:18;19.23;;;13.57;;
25627;SDS011;40915;50.826;4.356;2024-03-22T08:54:43;19.52;;;13.82;;
25627;SDS011;40915;50.826;4.356;2024-03-22T08:57:09;18.65;;;12.73;;
25627;SDS011;40915;50.826;4.356;2024-03-22T08:59:35;19.75;;;12.48;;
25627;SDS011;40915;50.826;4.356;2024-03-22T09:02:02;20.58;;;13.13;;
25627;SDS011;40915;50.826;4.356;2024-03-22T09:04:28;16.92;;;12.48;;
25627;SDS011;40915;50.826;4.356;2024-03-22T09:06:54;17.77;;;12.30;;
25627;SDS011;40915;50.826;4.356;2024-03-22T09:09:19;18.52;;;12.55;;
25627;SDS011;40915;50.826;4.356;2024-03-22T09:11:45;20.48;;;13.35;;
25627;SDS011;40915;50.826;4.356;2024-03-22T09:14:11;18.30;;;12.68;;
25627;SDS011;40915;50.826;4.356;2024-03-22T09:16:37;19.30;;;13.18;;
25627;SDS011;40915;50.826;4.356;2024-03-22T09:19:02;17.60;;;12.82;;
25627;SDS011;40915;50.826;4.356;2024-03-22T09:21:28;19.63;;;13.30;;
25627;SDS011;40915;50.826;4.356;2024-03-22T09:23:54;19.88;;;13.25;;
25627;SDS011;40915;50.826;4.356;2024-03-22T09:26:19;19.20;;;12.57;;
25627;SDS011;40915;50.826;4.356;2024-03-22T09:28:48;20.38;;;13.00;;
25627;SDS011;40915;50.826;4.356;2024-03-22T09:31:15;18.92;;;12.75;;
25627;SDS011;40915;50.826;4.356;2024-03-22T09:33:41;17.42;;;12.48;;
25627;SDS011;40915;50.826;4.356;2024-03-22T09:36:08;18.15;;;12.45;;
25627;SDS011;40915;50.826;4.356;2024-03-22T09:38:34;21.17;;;13.48;;
25627;SDS011;40915;50.826;4.356;2024-03-22T09:41:00;19.77;;;13.05;;
25627;SDS011;40915;50.826;4.356;2024-03-22T09:43:28;19.40;;;13.27;;
25627;SDS011;40915;50.826;4.356;2024-03-22T09:45:57;19.00;;;13.05;;
25627;SDS011;40915;50.826;4.356;2024-03-22T09:48:23;23.20;;;14.90;;
25627;SDS011;40915;50.826;4.356;2024-03-22T09:50:51;19.98;;;13.80;;
25627;SDS011;40915;50.826;4.356;2024-03-22T09:53:18;20.27;;;13.32;;
25627;SDS011;40915;50.826;4.356;2024-03-22T09:55:46;19.58;;;13.05;;
25627;SDS011;40915;50.826;4.356;2024-03-22T09:58:13;16.88;;;12.65;;
25627;SDS011;40915;50.826;4.356;2024-03-22T10:00:41;18.13;;;13.05;;
25627;SDS011;40915;50.826;4.356;2024-03-22T10:03:07;20.25;;;12.57;;
25627;SDS011;40915;50.826;4.356;2024-03-22T10:05:34;20.88;;;13.45;;
25627;SDS011;40915;50.826;4.356;2024-03-22T10:08:00;18.95;;;12.75;;
25627;SDS011;40915;50.826;4.356;2024-03-22T10:10:26;17.52;;;12.35;;
25627;SDS011;40915;50.826;4.356;2024-03-22T10:12:52;19.75;;;12.55;;
25627;SDS011;40915;50.826;4.356;2024-03-22T10:15:18;17.75;;;11.93;;
25627;SDS011;40915;50.826;4.356;2024-03-22T10:17:45;16.88;;;11.85;;
25627;SDS011;40915;50.826;4.356;2024-03-22T10:20:12;17.33;;;12.63;;
25627;SDS011;40915;50.826;4.356;2024-03-22T10:22:57;18.02;;;12.65;;
25627;SDS011;40915;50.826;4.356;2024-03-22T10:25:27;16.15;;;11.43;;
25627;SDS011;40915;50.826;4.356;2024-03-22T10:27:54;19.25;;;12.05;;
25627;SDS011;40915;50.826;4.356;2024-03-22T10:30:20;17.10;;;11.50;;
25627;SDS011;40915;50.826;4.356;2024-03-22T10:32:48;17.15;;;10.98;;
25627;SDS011;40915;50.826;4.356;2024-03-22T10:35:14;17.52;;;12.00;;
25627;SDS011;40915;50.826;4.356;2024-03-22T10:37:40;17.10;;;11.15;;
25627;SDS011;40915;50.826;4.356;2024-03-22T10:40:07;18.42;;;11.43;;
25627;SDS011;40915;50.826;4.356;2024-03-22T10:42:36;20.30;;;11.65;;
25627;SDS011;40915;50.826;4.356;2024-03-22T10:45:06;17.02;;;11.48;;
25627;SDS011;40915;50.826;4.356;2024-03-22T10:47:35;16.90;;;11.43;;
25627;SDS011;40915;50.826;4.356;2024-03-22T10:52:32;16.70;;;11.40;;
25627;SDS011;40915;50.826;4.356;2024-03-22T10:55:03;18.25;;;11.50;;
25627;SDS011;40915;50.826;4.356;2024-03-22T10:57:32;17.40;;;11.18;;
25627;SDS011;40915;50.826;4.356;2024-03-22T11:00:02;17.35;;;10.95;;
25627;SDS011;40915;50.826;4.356;2024-03-22T11:02:35;18.70;;;11.80;;
25627;SDS011;40915;50.826;4.356;2024-03-22T11:05:02;16.35;;;11.90;;
25627;SDS011;40915;50.826;4.356;2024-03-22T11:07:29;19.15;;;13.38;;
25627;SDS011;40915;50.826;4.356;2024-03-22T11:09:56;20.08;;;12.85;;
25627;SDS011;40915;50.826;4.356;2024-03-22T11:12:24;18.45;;;11.77;;
25627;SDS011;40915;50.826;4.356;2024-03-22T11:14:51;20.17;;;12.77;;
25627;SDS011;40915;50.826;4.356;2024-03-22T11:17:18;17.85;;;11.18;;
25627;SDS011;40915;50.826;4.356;2024-03-22T11:19:44;16.67;;;11.55;;
25627;SDS011;40915;50.826;4.356;2024-03-22T11:22:09;19.73;;;11.70;;
25627;SDS011;40915;50.826;4.356;2024-03-22T11:24:40;16.27;;;11.18;;
25627;SDS011;40915;50.826;4.356;2024-03-22T11:27:06;20.23;;;12.10;;
25627;SDS011;40915;50.826;4.356;2024-03-22T11:29:32;14.27;;;10.65;;
25627;SDS011;40915;50.826;4.356;2024-03-22T11:31:58;20.30;;;11.73;;
25627;SDS011;40915;50.826;4.356;2024-03-22T11:34:25;20.30;;;11.25;;
25627;SDS011;40915;50.826;4.356;2024-03-22T11:36:51;17.52;;;11.30;;
25627;SDS011;40915;50.826;4.356;2024-03-22T11:39:19;16.40;;;10.70;;
25627;SDS011;40915;50.826;4.356;2024-03-22T11:41:44;17.98;;;11.27;;
25627;SDS011;40915;50.826;4.356;2024-03-22T11:44:14;15.48;;;10.75;;
25627;SDS011;40915;50.826;4.356;2024-03-22T11:46:40;17.17;;;10.60;;
25627;SDS011;40915;50.826;4.356;2024-03-22T11:49:06;15.88;;;10.45;;
25627;SDS011;40915;50.826;4.356;2024-03-22T11:51:32;17.75;;;10.45;;
25627;SDS011;40915;50.826;4.356;2024-03-22T11:53:57;16.35;;;10.90;;
25627;SDS011;40915;50.826;4.356;2024-03-22T11:56:24;16.88;;;10.90;;
25627;SDS011;40915;50.826;4.356;2024-03-22T11:58:57;19.88;;;12.15;;
25627;SDS011;40915;50.826;4.356;2024-03-22T12:01:23;16.60;;;10.93;;
25627;SDS011;40915;50.826;4.356;2024-03-22T12:03:49;20.50;;;11.68;;
25627;SDS011;40915;50.826;4.356;2024-03-22T12:06:15;15.82;;;11.80;;
25627;SDS011;40915;50.826;4.356;2024-03-22T12:08:41;16.23;;;11.50;;
25627;SDS011;40915;50.826;4.356;2024-03-22T12:11:07;17.95;;;10.82;;
25627;SDS011;40915;50.826;4.356;2024-03-22T12:13:33;18.73;;;10.93;;
25627;SDS011;40915;50.826;4.356;2024-03-22T12:15:59;18.45;;;11.25;;
25627;SDS011;40915;50.826;4.356;2024-03-22T12:18:26;23.73;;;11.13;;
25627;SDS011;40915;50.826;4.356;2024-03-22T12:20:52;19.13;;;11.10;;
25627;SDS011;40915;50.826;4.356;2024-03-22T12:23:18;23.80;;;14.32;;
25627;SDS011;40915;50.826;4.356;2024-03-22T12:25:44;22.95;;;13.52;;
25627;SDS011;40915;50.826;4.356;2024-03-22T12:28:09;18.23;;;12.43;;
25627;SDS011;40915;50.826;4.356;2024-03-22T12:30:35;17.80;;;11.73;;
25627;SDS011;40915;50.826;4.356;2024-03-22T12:33:01;20.30;;;11.68;;
25627;SDS011;40915;50.826;4.356;2024-03-22T12:35:26;18.05;;;9.70;;
25627;SDS011;40915;50.826;4.356;2024-03-22T12:37:56;15.85;;;9.77;;
25627;SDS011;40915;50.826;4.356;2024-03-22T12:40:22;13.55;;;9.00;;
25627;SDS011;40915;50.826;4.356;2024-03-22T12:42:47;18.15;;;9.43;;
25627;SDS011;40915;50.826;4.356;2024-03-22T12:45:13;19.33;;;9.35;;
25627;SDS011;40915;50.826;4.356;2024-03-22T12:47:39;14.68;;;8.85;;
25627;SDS011;40915;50.826;4.356;2024-03-22T12:50:04;14.75;;;9.05;;
25627;SDS011;40915;50.826;4.356;2024-03-22T12:52:30;17.13;;;8.55;;
25627;SDS011;40915;50.826;4.356;2024-03-22T12:54:56;16.88;;;10.02;;
25627;SDS011;40915;50.826;4.356;2024-03-22T12:57:22;17.15;;;8.45;;
25627;SDS011;40915;50.826;4.356;2024-03-22T12:59:47;18.48;;;8.70;;
25627;SDS011;40915;50.826;4.356;2024-03-22T13:02:13;21.50;;;10.18;;
25627;SDS011;40915;50.826;4.356;2024-03-22T13:04:39;18.85;;;10.93;;
25627;SDS011;40915;50.826;4.356;2024-03-22T13:07:04;19.25;;;10.20;;
25627;SDS011;40915;50.826;4.356;2024-03-22T13:09:30;20.70;;;10.15;;
25627;SDS011;40915;50.826;4.356;2024-03-22T13:11:56;17.35;;;9.82;;
25627;SDS011;40915;50.826;4.356;2024-03-22T13:14:21;18.15;;;9.93;;
25627;SDS011;40915;50.826;4.356;2024-03-22T13:16:47;13.77;;;8.85;;
25627;SDS011;40915;50.826;4.356;2024-03-22T13:19:13;17.17;;;9.20;;
25627;SDS011;40915;50.826;4.356;2024-03-22T13:21:39;21.88;;;8.40;;
25627;SDS011;40915;50.826;4.356;2024-03-22T13:24:05;12.63;;;7.97;;
25627;SDS011;40915;50.826;4.356;2024-03-22T13:26:31;16.25;;;7.78;;
25627;SDS011;40915;50.826;4.356;2024-03-22T13:28:57;18.95;;;8.10;;
25627;SDS011;40915;50.826;4.356;2024-03-22T13:31:22;15.40;;;8.27;;
25627;SDS011;40915;50.826;4.356;2024-03-22T13:33:48;15.48;;;8.13;;
25627;SDS011;40915;50.826;4.356;2024-03-22T13:36:14;13.52;;;8.25;;
25627;SDS011;40915;50.826;4.356;2024-03-22T13:38:39;13.77;;;7.93;;
25627;SDS011;40915;50.826;4.356;2024-03-22T13:41:05;15.13;;;8.27;;
25627;SDS011;40915;50.826;4.356;2024-03-22T13:43:31;16.00;;;8.10;;
25627;SDS011;40915;50.826;4.356;2024-03-22T13:45:57;15.05;;;8.38;;
25627;SDS011;40915;50.826;4.356;2024-03-22T13:48:23;18.23;;;9.73;;
25627;SDS011;40915;50.826;4.356;2024-03-22T13:50:51;15.25;;;9.00;;
25627;SDS011;40915;50.826;4.356;2024-03-22T13:53:18;13.95;;;8.60;;
25627;SDS011;40915;50.826;4.356;2024-03-22T13:55:44;15.45;;;8.95;;
25627;SDS011;40915;50.826;4.356;2024-03-22T13:58:10;14.73;;;8.45;;
25627;SDS011;40915;50.826;4.356;2024-03-22T14:00:37;19.20;;;9.73;;
25627;SDS011;40915;50.826;4.356;2024-03-22T14:03:03;17.30;;;9.43;;
25627;SDS011;40915;50.826;4.356;2024-03-22T14:05:29;18.08;;;9.18;;
25627;SDS011;40915;50.826;4.356;2024-03-22T14:07:54;12.45;;;9.02;;
25627;SDS011;40915;50.826;4.356;2024-03-22T14:10:20;16.50;;;8.48;;
25627;SDS011;40915;50.826;4.356;2024-03-22T14:12:47;15.45;;;8.65;;
25627;SDS011;40915;50.826;4.356;2024-03-22T14:15:14;13.25;;;7.80;;
25627;SDS011;40915;50.826;4.356;2024-03-22T14:17:39;15.40;;;7.88;;
25627;SDS011;40915;50.826;4.356;2024-03-22T14:20:05;20.95;;;8.30;;